Time;durP1;ratioP1;P1;durP2;ratioP2;P2;SDS_P1;SDS_P2;PMS_P1;PMS_P2;Temp;Humidity;BMP_temperature;BMP_pressure;BME280_temperature;BME280_humidity;BME280_pressure;Samples;Min_cycle;Max_cycle;Signal;HPM_P1;HPM_P2
2023/11/03 00:00:34;;;;;;;1.23;0.60;;;;;;;;;;5060815;28;20044;-56
2023/11/03 00:03:02;;;;;;;1.77;0.77;;;;;;;;;;5062174;28;20467;-57
2023/11/03 00:05:29;;;;;;;3.40;0.85;;;;;;;;;;5059508;28;20111;-55
2023/11/03 00:07:58;;;;;;;3.83;1.00;;;;;;;;;;5059898;28;20076;-56
2023/11/03 00:10:24;;;;;;;2.53;0.77;;;;;;;;;;5066946;28;20044;-57
2023/11/03 00:12:51;;;;;;;5.05;1.38;;;;;;;;;;5067841;28;20076;-57
2023/11/03 00:15:18;;;;;;;2.70;0.88;;;;;;;;;;5059049;28;20463;-55
2023/11/03 00:17:45;;;;;;;1.17;0.60;;;;;;;;;;5062969;28;20072;-54
2023/11/03 00:20:14;;;;;;;1.88;0.65;;;;;;;;;;5066115;28;20117;-57
2023/11/03 00:22:42;;;;;;;3.33;0.95;;;;;;;;;;5065368;28;20052;-57
2023/11/03 00:25:13;;;;;;;1.10;0.52;;;;;;;;;;5067147;28;20135;-56
2023/11/03 00:27:42;;;;;;;1.33;0.70;;;;;;;;;;5062737;28;20095;-55
2023/11/03 00:30:11;;;;;;;1.77;0.70;;;;;;;;;;5069291;28;20049;-54
2023/11/03 00:32:38;;;;;;;1.42;0.70;;;;;;;;;;5054857;28;20044;-54
2023/11/03 00:35:08;;;;;;;2.50;0.73;;;;;;;;;;5064073;28;20487;-56
2023/11/03 00:37:35;;;;;;;1.70;0.52;;;;;;;;;;5066395;28;20048;-56
2023/11/03 00:40:02;;;;;;;3.10;0.93;;;;;;;;;;5066004;28;20045;-57
2023/11/03 00:42:30;;;;;;;1.23;0.60;;;;;;;;;;5072098;28;20204;-56
2023/11/03 00:44:58;;;;;;;1.80;0.80;;;;;;;;;;5061292;28;20049;-57
2023/11/03 00:47:24;;;;;;;1.73;0.70;;;;;;;;;;5065678;28;20041;-56
2023/11/03 00:49:52;;;;;;;1.65;0.70;;;;;;;;;;5068043;28;20087;-55
2023/11/03 00:52:19;;;;;;;2.05;0.70;;;;;;;;;;5071153;28;20044;-57
2023/11/03 00:54:46;;;;;;;1.13;0.68;;;;;;;;;;5066219;28;20048;-55
2023/11/03 00:57:12;;;;;;;1.60;0.70;;;;;;;;;;5064665;28;20087;-58
2023/11/03 00:59:42;;;;;;;1.95;0.70;;;;;;;;;;5051099;28;20053;-58
2023/11/03 01:02:09;;;;;;;1.58;0.68;;;;;;;;;;5062963;28;20515;-52
2023/11/03 01:04:37;;;;;;;1.08;0.50;;;;;;;;;;5061331;28;20060;-53
2023/11/03 01:07:04;;;;;;;1.50;0.52;;;;;;;;;;5072023;28;20127;-55
2023/11/03 01:09:31;;;;;;;1.35;0.77;;;;;;;;;;5072023;28;20049;-53
2023/11/03 01:11:58;;;;;;;1.35;0.60;;;;;;;;;;5063427;28;20037;-57
2023/11/03 01:14:25;;;;;;;1.83;0.75;;;;;;;;;;5071324;28;20044;-57
2023/11/03 01:16:54;;;;;;;1.52;0.60;;;;;;;;;;5071208;28;20557;-57
2023/11/03 01:19:21;;;;;;;1.50;0.60;;;;;;;;;;5070759;28;20045;-55
2023/11/03 01:21:48;;;;;;;3.30;0.60;;;;;;;;;;5062156;28;20040;-54
2023/11/03 01:24:15;;;;;;;2.45;0.60;;;;;;;;;;5062810;28;20068;-57
2023/11/03 01:26:43;;;;;;;2.28;0.93;;;;;;;;;;5061850;28;20045;-54
2023/11/03 01:29:10;;;;;;;2.60;0.82;;;;;;;;;;5064703;28;20420;-56
2023/11/03 01:31:37;;;;;;;2.45;1.13;;;;;;;;;;5059890;28;20055;-58
2023/11/03 01:34:05;;;;;;;2.20;1.00;;;;;;;;;;5069315;28;20515;-57
2023/11/03 01:36:35;;;;;;;3.50;1.30;;;;;;;;;;5054701;28;20053;-57
2023/11/03 01:39:02;;;;;;;1.63;0.75;;;;;;;;;;5062638;28;20489;-54
2023/11/03 01:41:28;;;;;;;2.50;1.02;;;;;;;;;;5071322;28;20068;-57
2023/11/03 01:44:05;;;;;;;3.80;1.35;;;;;;;;;;5070906;28;20072;-56
2023/11/03 01:46:33;;;;;;;1.40;0.73;;;;;;;;;;5071087;28;20048;-55
2023/11/03 01:49:00;;;;;;;1.13;0.70;;;;;;;;;;5063144;28;20580;-54
2023/11/03 01:51:29;;;;;;;1.30;0.50;;;;;;;;;;5055127;28;20076;-57
2023/11/03 01:53:56;;;;;;;2.10;0.70;;;;;;;;;;5054439;28;20123;-57
2023/11/03 01:56:24;;;;;;;1.73;0.88;;;;;;;;;;5068913;28;20126;-55
2023/11/03 01:58:51;;;;;;;1.17;0.63;;;;;;;;;;5071216;28;20528;-52
2023/11/03 02:01:18;;;;;;;1.33;0.55;;;;;;;;;;5071244;28;20534;-58
2023/11/03 02:03:45;;;;;;;1.48;0.60;;;;;;;;;;5070880;28;20083;-56
2023/11/03 02:06:12;;;;;;;2.70;0.85;;;;;;;;;;5070947;28;20041;-58
2023/11/03 02:08:41;;;;;;;2.42;1.00;;;;;;;;;;5062734;28;20549;-54
2023/11/03 02:11:08;;;;;;;2.13;0.80;;;;;;;;;;5071326;28;20053;-55
2023/11/03 02:13:36;;;;;;;2.22;1.23;;;;;;;;;;5070938;28;20048;-58
2023/11/03 02:16:03;;;;;;;2.58;0.98;;;;;;;;;;5074715;28;20056;-54
2023/11/03 02:18:31;;;;;;;2.38;0.90;;;;;;;;;;5063743;28;20102;-56
2023/11/03 02:20:58;;;;;;;2.17;0.90;;;;;;;;;;5062867;28;20068;-57
2023/11/03 02:23:26;;;;;;;2.47;1.17;;;;;;;;;;5069869;28;20041;-56
2023/11/03 02:25:53;;;;;;;1.63;0.88;;;;;;;;;;5063302;28;20136;-58
2023/11/03 02:28:21;;;;;;;3.25;1.05;;;;;;;;;;5068532;28;20052;-58
2023/11/03 02:30:48;;;;;;;5.50;1.92;;;;;;;;;;5060854;28;20053;-56
2023/11/03 02:33:15;;;;;;;2.95;1.23;;;;;;;;;;5070837;28;20501;-55
2023/11/03 02:35:42;;;;;;;3.88;1.15;;;;;;;;;;5069209;28;20128;-56
2023/11/03 02:38:09;;;;;;;3.40;1.40;;;;;;;;;;5054834;28;20071;-55
2023/11/03 02:40:38;;;;;;;2.63;1.13;;;;;;;;;;5068735;28;20049;-58
2023/11/03 02:43:05;;;;;;;3.47;1.20;;;;;;;;;;5071578;28;20099;-55
2023/11/03 02:45:32;;;;;;;3.97;1.15;;;;;;;;;;5063511;28;20052;-56
2023/11/03 02:47:58;;;;;;;1.95;1.00;;;;;;;;;;5069027;28;20040;-52
2023/11/03 02:50:25;;;;;;;2.42;1.00;;;;;;;;;;5069809;28;20083;-55
2023/11/03 02:52:52;;;;;;;5.55;0.93;;;;;;;;;;5074036;28;20056;-55
2023/11/03 02:55:19;;;;;;;1.48;0.80;;;;;;;;;;5074112;28;20076;-56
2023/11/03 02:57:47;;;;;;;3.13;0.80;;;;;;;;;;5074137;28;20360;-56
2023/11/03 03:00:16;;;;;;;1.13;0.82;;;;;;;;;;5074320;28;20516;-57
2023/11/03 03:02:43;;;;;;;2.95;1.02;;;;;;;;;;5072846;28;20079;-55
2023/11/03 03:05:10;;;;;;;5.85;1.10;;;;;;;;;;5073633;28;20141;-54
2023/11/03 03:07:38;;;;;;;1.90;0.93;;;;;;;;;;5074172;28;20056;-57
2023/11/03 03:10:06;;;;;;;2.40;1.00;;;;;;;;;;5073902;28;20080;-55
2023/11/03 03:12:33;;;;;;;5.15;1.00;;;;;;;;;;5074052;28;20083;-54
2023/11/03 03:15:03;;;;;;;3.03;0.98;;;;;;;;;;5073564;28;20052;-56
2023/11/03 03:17:30;;;;;;;2.80;1.10;;;;;;;;;;5057724;28;20056;-54
2023/11/03 03:19:57;;;;;;;2.08;1.10;;;;;;;;;;5054006;28;20045;-56
2023/11/03 03:22:24;;;;;;;1.63;1.00;;;;;;;;;;5053369;28;20094;-56
2023/11/03 03:24:51;;;;;;;2.22;1.00;;;;;;;;;;5053183;28;20081;-55
2023/11/03 03:27:18;;;;;;;3.05;1.30;;;;;;;;;;5054867;28;20139;-55
2023/11/03 03:29:44;;;;;;;2.13;1.00;;;;;;;;;;5072502;28;20126;-55
2023/11/03 03:32:13;;;;;;;2.67;1.00;;;;;;;;;;5066991;28;20136;-58
2023/11/03 03:34:39;;;;;;;3.22;1.20;;;;;;;;;;5073395;28;20048;-52
2023/11/03 03:37:06;;;;;;;3.03;1.05;;;;;;;;;;5073272;28;20064;-56
2023/11/03 03:39:33;;;;;;;5.68;1.20;;;;;;;;;;5073605;28;20061;-57
2023/11/03 03:42:00;;;;;;;2.95;1.05;;;;;;;;;;5073504;28;20133;-55
2023/11/03 03:44:27;;;;;;;2.55;1.10;;;;;;;;;;5073416;28;20131;-56
2023/11/03 03:46:53;;;;;;;4.05;1.20;;;;;;;;;;5072336;28;20064;-55
2023/11/03 03:49:22;;;;;;;2.05;1.10;;;;;;;;;;5068161;28;20091;-57
2023/11/03 03:51:48;;;;;;;2.58;1.27;;;;;;;;;;5073101;28;20120;-54
2023/11/03 03:54:15;;;;;;;3.53;1.13;;;;;;;;;;5072992;28;20076;-56
2023/11/03 03:56:42;;;;;;;3.65;1.73;;;;;;;;;;5072778;28;20137;-56
2023/11/03 03:59:09;;;;;;;2.88;1.10;;;;;;;;;;5072981;28;20045;-57
2023/11/03 04:01:36;;;;;;;2.15;0.90;;;;;;;;;;5065735;28;20053;-54
2023/11/03 04:04:03;;;;;;;3.33;1.15;;;;;;;;;;5072908;28;20045;-57
2023/11/03 04:06:33;;;;;;;3.72;1.30;;;;;;;;;;5072626;28;20040;-55
2023/11/03 04:08:59;;;;;;;3.25;1.20;;;;;;;;;;5072605;28;20470;-56
2023/11/03 04:11:26;;;;;;;2.75;1.20;;;;;;;;;;5070719;28;20044;-54
2023/11/03 04:13:53;;;;;;;3.22;1.65;;;;;;;;;;5072431;28;20040;-54
2023/11/03 04:16:21;;;;;;;2.95;1.20;;;;;;;;;;5072465;28;20602;-55
2023/11/03 04:18:48;;;;;;;4.57;1.50;;;;;;;;;;5072584;28;20041;-56
2023/11/03 04:21:14;;;;;;;3.17;1.00;;;;;;;;;;5069008;28;20079;-55
2023/11/03 04:23:42;;;;;;;3.22;1.25;;;;;;;;;;5063422;28;20079;-55
2023/11/03 04:26:09;;;;;;;4.07;1.15;;;;;;;;;;5065857;28;20485;-55
2023/11/03 04:28:36;;;;;;;3.45;1.15;;;;;;;;;;5072204;28;20049;-55
2023/11/03 04:31:03;;;;;;;3.35;1.42;;;;;;;;;;5072261;28;20048;-54
2023/11/03 04:33:30;;;;;;;2.15;1.17;;;;;;;;;;5062554;28;20412;-55
2023/11/03 04:35:57;;;;;;;5.05;1.50;;;;;;;;;;5071830;28;20051;-56
2023/11/03 04:38:24;;;;;;;2.70;1.35;;;;;;;;;;5071680;28;20044;-55
2023/11/03 04:40:52;;;;;;;5.40;1.95;;;;;;;;;;5072033;28;20138;-56
2023/11/03 04:43:20;;;;;;;3.47;1.45;;;;;;;;;;5064455;28;20160;-54
2023/11/03 04:45:47;;;;;;;3.72;1.48;;;;;;;;;;5071791;28;20045;-56
2023/11/03 04:48:13;;;;;;;3.22;1.23;;;;;;;;;;5071902;28;20048;-57
2023/11/03 04:50:40;;;;;;;5.60;1.98;;;;;;;;;;5071969;28;20044;-56
2023/11/03 04:53:07;;;;;;;4.28;1.40;;;;;;;;;;5063817;28;20076;-57
2023/11/03 04:55:34;;;;;;;4.50;1.55;;;;;;;;;;5062441;28;20076;-55
2023/11/03 04:58:02;;;;;;;5.28;1.80;;;;;;;;;;5071927;28;20518;-54
2023/11/03 05:00:29;;;;;;;4.68;1.45;;;;;;;;;;5071748;28;20057;-56
2023/11/03 05:02:56;;;;;;;3.20;1.20;;;;;;;;;;5070875;28;20052;-56
2023/11/03 05:05:22;;;;;;;3.03;1.30;;;;;;;;;;5070985;28;20484;-54
2023/11/03 05:07:49;;;;;;;5.18;1.50;;;;;;;;;;5071552;28;20075;-54
2023/11/03 05:10:16;;;;;;;5.43;1.55;;;;;;;;;;5071720;28;20088;-57
2023/11/03 05:12:43;;;;;;;3.47;1.25;;;;;;;;;;5071465;28;20463;-57
2023/11/03 05:15:12;;;;;;;2.95;2.35;;;;;;;;;;5068651;28;20128;-57
2023/11/03 05:17:39;;;;;;;3.53;1.45;;;;;;;;;;5071292;28;20056;-57
2023/11/03 05:20:08;;;;;;;2.47;1.25;;;;;;;;;;5071495;28;20048;-57
2023/11/03 05:22:36;;;;;;;3.58;1.23;;;;;;;;;;5062088;28;20256;-55
2023/11/03 05:25:03;;;;;;;3.42;1.50;;;;;;;;;;5062021;28;20045;-55
2023/11/03 05:27:30;;;;;;;5.32;1.63;;;;;;;;;;5067455;28;20045;-57
2023/11/03 05:29:58;;;;;;;3.80;1.15;;;;;;;;;;5071374;28;20040;-57
2023/11/03 05:32:26;;;;;;;5.50;1.30;;;;;;;;;;5070976;28;20540;-57
2023/11/03 05:34:54;;;;;;;3.63;1.33;;;;;;;;;;5061701;28;20053;-57
2023/11/03 05:37:20;;;;;;;3.05;1.52;;;;;;;;;;5070894;28;20094;-55
2023/11/03 05:39:47;;;;;;;5.10;1.33;;;;;;;;;;5071036;28;20048;-57
2023/11/03 05:42:14;;;;;;;2.95;1.15;;;;;;;;;;5071503;28;20075;-55
2023/11/03 05:44:41;;;;;;;3.50;1.25;;;;;;;;;;5068605;28;20090;-56
2023/11/03 05:47:07;;;;;;;3.28;1.55;;;;;;;;;;5057690;28;20128;-56
2023/11/03 05:49:36;;;;;;;5.53;1.63;;;;;;;;;;5051077;28;20049;-53
2023/11/03 05:52:03;;;;;;;3.08;1.67;;;;;;;;;;5051791;28;20077;-55
2023/11/03 05:54:30;;;;;;;3.65;1.85;;;;;;;;;;5051366;28;20060;-54
2023/11/03 05:56:57;;;;;;;3.95;1.50;;;;;;;;;;5064547;28;20663;-56
2023/11/03 05:59:25;;;;;;;4.13;1.45;;;;;;;;;;5055795;28;20053;-55
2023/11/03 06:01:53;;;;;;;3.45;1.80;;;;;;;;;;5051143;28;20061;-55
2023/11/03 06:04:19;;;;;;;4.68;1.70;;;;;;;;;;5051335;28;20049;-57
2023/11/03 06:06:48;;;;;;;4.20;1.50;;;;;;;;;;5067105;28;20123;-56
2023/11/03 06:09:16;;;;;;;4.22;1.40;;;;;;;;;;5071256;28;20132;-56
2023/11/03 06:11:43;;;;;;;2.60;1.30;;;;;;;;;;5071383;28;20047;-56
2023/11/03 06:14:10;;;;;;;2.97;1.30;;;;;;;;;;5071105;28;20577;-56
2023/11/03 06:16:37;;;;;;;3.35;1.38;;;;;;;;;;5067016;28;20045;-54
2023/11/03 06:19:04;;;;;;;2.88;1.30;;;;;;;;;;5068796;28;20044;-53
2023/11/03 06:21:31;;;;;;;4.20;1.30;;;;;;;;;;5071140;28;20056;-57
2023/11/03 06:23:59;;;;;;;3.75;1.77;;;;;;;;;;5070842;28;20049;-55
2023/11/03 06:26:26;;;;;;;4.82;1.73;;;;;;;;;;5061917;28;20102;-57
2023/11/03 06:28:56;;;;;;;3.50;1.55;;;;;;;;;;5061026;28;20066;-52
2023/11/03 06:31:23;;;;;;;4.47;1.92;;;;;;;;;;5061044;28;20428;-50
2023/11/03 06:33:50;;;;;;;4.25;1.50;;;;;;;;;;5052462;28;20068;-55
2023/11/03 06:36:17;;;;;;;3.53;1.42;;;;;;;;;;5060516;28;20048;-56
2023/11/03 06:38:44;;;;;;;3.60;1.70;;;;;;;;;;5060045;28;20472;-55
2023/11/03 06:41:12;;;;;;;4.75;1.50;;;;;;;;;;5055453;28;20060;-53
2023/11/03 06:43:40;;;;;;;4.40;1.75;;;;;;;;;;5062220;28;20088;-54
2023/11/03 06:46:08;;;;;;;2.80;1.50;;;;;;;;;;5053681;28;20419;-55
2023/11/03 06:48:35;;;;;;;6.35;1.60;;;;;;;;;;5063649;28;20078;-55
2023/11/03 06:51:02;;;;;;;4.05;2.75;;;;;;;;;;5060840;28;20132;-53
2023/11/03 06:53:29;;;;;;;3.17;1.45;;;;;;;;;;5058483;28;20056;-53
2023/11/03 06:55:56;;;;;;;4.35;1.92;;;;;;;;;;5053573;28;20130;-56
2023/11/03 06:58:24;;;;;;;4.32;1.73;;;;;;;;;;5058382;28;20102;-56
2023/11/03 07:00:51;;;;;;;4.85;1.67;;;;;;;;;;5060651;28;20037;-55
2023/11/03 07:03:18;;;;;;;5.18;1.90;;;;;;;;;;5058809;28;20439;-56
2023/11/03 07:05:46;;;;;;;4.22;2.13;;;;;;;;;;5057591;28;20128;-55
2023/11/03 07:08:13;;;;;;;4.18;2.15;;;;;;;;;;5060416;28;20049;-54
2023/11/03 07:10:39;;;;;;;5.72;2.17;;;;;;;;;;5063551;28;20134;-53
2023/11/03 07:13:06;;;;;;;3.70;1.42;;;;;;;;;;5062131;28;20084;-53
2023/11/03 07:15:35;;;;;;;4.32;1.98;;;;;;;;;;5053865;28;20532;-56
2023/11/03 07:18:01;;;;;;;5.10;1.70;;;;;;;;;;5066131;28;20488;-56
2023/11/03 07:20:30;;;;;;;4.50;1.90;;;;;;;;;;5074053;28;20461;-55
2023/11/03 07:22:57;;;;;;;5.60;2.00;;;;;;;;;;5073824;28;20056;-55
2023/11/03 07:25:25;;;;;;;3.80;1.70;;;;;;;;;;5073691;28;20463;-56
2023/11/03 07:27:51;;;;;;;3.78;1.50;;;;;;;;;;5073862;28;20074;-57
2023/11/03 07:30:19;;;;;;;4.32;1.60;;;;;;;;;;5074023;28;20479;-56
2023/11/03 07:32:47;;;;;;;4.30;1.75;;;;;;;;;;5073549;28;20455;-56
2023/11/03 07:35:14;;;;;;;4.00;1.70;;;;;;;;;;5073646;28;20525;-55
2023/11/03 07:37:41;;;;;;;4.13;1.80;;;;;;;;;;5073479;28;20048;-55
2023/11/03 07:40:10;;;;;;;3.75;1.50;;;;;;;;;;5073828;28;20079;-54
2023/11/03 07:42:37;;;;;;;3.50;1.60;;;;;;;;;;5073289;28;20610;-55
2023/11/03 07:45:06;;;;;;;4.93;1.80;;;;;;;;;;5057447;28;20144;-55
2023/11/03 07:47:33;;;;;;;5.32;2.05;;;;;;;;;;5073467;28;20076;-51
2023/11/03 07:50:01;;;;;;;6.45;2.10;;;;;;;;;;5073374;28;20052;-51
2023/11/03 07:52:28;;;;;;;5.28;1.80;;;;;;;;;;5073560;28;20054;-54
2023/11/03 07:54:55;;;;;;;4.20;1.50;;;;;;;;;;5073105;28;20058;-56
2023/11/03 07:57:22;;;;;;;4.45;1.70;;;;;;;;;;5073493;28;20139;-53
2023/11/03 07:59:48;;;;;;;5.32;1.98;;;;;;;;;;5073199;28;20131;-55
2023/11/03 08:02:16;;;;;;;4.53;1.75;;;;;;;;;;5062739;28;20132;-63
2023/11/03 08:04:43;;;;;;;4.53;1.95;;;;;;;;;;5052183;28;20052;-54
2023/11/03 08:07:13;;;;;;;5.38;1.83;;;;;;;;;;5059623;28;20128;-54
2023/11/03 08:09:39;;;;;;;4.20;1.75;;;;;;;;;;5062139;28;20084;-55
2023/11/03 08:12:08;;;;;;;4.80;1.75;;;;;;;;;;5061941;28;20088;-53
2023/11/03 08:14:35;;;;;;;4.32;2.00;;;;;;;;;;5062698;28;20054;-55
2023/11/03 08:17:01;;;;;;;4.90;1.60;;;;;;;;;;5060537;28;20567;-56
2023/11/03 08:19:29;;;;;;;5.03;1.95;;;;;;;;;;5055281;28;20135;-57
2023/11/03 08:21:56;;;;;;;4.63;2.35;;;;;;;;;;5056613;28;20056;-54
2023/11/03 08:24:24;;;;;;;3.40;1.65;;;;;;;;;;5061042;28;20048;-55
2023/11/03 08:26:51;;;;;;;3.60;1.55;;;;;;;;;;5061322;28;20123;-56
2023/11/03 08:29:18;;;;;;;7.13;1.80;;;;;;;;;;5059469;28;20053;-56
2023/11/03 08:31:45;;;;;;;4.75;1.83;;;;;;;;;;5060673;28;20140;-56
2023/11/03 08:34:12;;;;;;;5.07;1.60;;;;;;;;;;5063038;28;20048;-51
2023/11/03 08:36:39;;;;;;;4.78;1.67;;;;;;;;;;5058189;28;20065;-56
2023/11/03 08:39:06;;;;;;;4.00;1.65;;;;;;;;;;5059256;28;20080;-56
2023/11/03 08:41:35;;;;;;;4.60;2.00;;;;;;;;;;5062350;28;20508;-55
2023/11/03 08:44:02;;;;;;;3.85;1.70;;;;;;;;;;5054520;28;20525;-53
2023/11/03 08:46:29;;;;;;;3.00;1.30;;;;;;;;;;5056376;28;20049;-57
2023/11/03 08:48:56;;;;;;;4.63;1.83;;;;;;;;;;5060324;28;20521;-56
2023/11/03 08:51:23;;;;;;;4.50;1.90;;;;;;;;;;5055356;28;20130;-55
2023/11/03 08:53:50;;;;;;;5.28;1.70;;;;;;;;;;5058350;28;20516;-57
2023/11/03 08:56:17;;;;;;;7.75;2.75;;;;;;;;;;5058487;28;20052;-53
2023/11/03 08:58:46;;;;;;;5.05;1.55;;;;;;;;;;5061023;28;20049;-53
2023/11/03 09:01:13;;;;;;;2.85;1.38;;;;;;;;;;5069974;28;20397;-55
2023/11/03 09:03:40;;;;;;;5.15;1.70;;;;;;;;;;5061022;28;20423;-57
2023/11/03 09:06:07;;;;;;;4.15;1.50;;;;;;;;;;5061482;28;20119;-55
2023/11/03 09:08:34;;;;;;;5.97;1.90;;;;;;;;;;5064688;28;20132;-56
2023/11/03 09:11:01;;;;;;;4.05;1.60;;;;;;;;;;5061866;28;20072;-56
2023/11/03 09:13:28;;;;;;;3.55;1.38;;;;;;;;;;5062481;28;20456;-56
2023/11/03 09:15:57;;;;;;;4.20;2.00;;;;;;;;;;5061548;28;20044;-56
2023/11/03 09:18:25;;;;;;;5.45;2.00;;;;;;;;;;5060406;28;20402;-54
2023/11/03 09:20:52;;;;;;;4.32;1.67;;;;;;;;;;5068161;28;20049;-56
2023/11/03 09:23:19;;;;;;;5.18;1.40;;;;;;;;;;5065481;28;20483;-55
2023/11/03 09:25:46;;;;;;;3.22;1.48;;;;;;;;;;5059971;28;20559;-54
2023/11/03 09:28:12;;;;;;;4.32;2.00;;;;;;;;;;5061965;28;20098;-57
2023/11/03 09:30:41;;;;;;;4.60;1.63;;;;;;;;;;5062103;28;20120;-58
2023/11/03 09:33:09;;;;;;;4.38;1.63;;;;;;;;;;5054929;28;20147;-53
2023/11/03 09:35:36;;;;;;;6.70;2.08;;;;;;;;;;5053274;28;20124;-56
2023/11/03 09:38:03;;;;;;;5.53;1.85;;;;;;;;;;5058258;28;20046;-57
2023/11/03 09:40:30;;;;;;;3.45;1.73;;;;;;;;;;5055470;28;20424;-55
2023/11/03 09:42:58;;;;;;;7.20;1.83;;;;;;;;;;5061176;28;20500;-56
2023/11/03 09:45:27;;;;;;;4.78;1.83;;;;;;;;;;5055295;28;20132;-55
2023/11/03 09:47:56;;;;;;;3.60;1.33;;;;;;;;;;5053998;28;20048;-57
2023/11/03 09:50:25;;;;;;;4.75;1.70;;;;;;;;;;5047747;28;20201;-63
2023/11/03 09:52:55;;;;;;;4.70;1.77;;;;;;;;;;5049513;28;20055;-64
2023/11/03 09:55:22;;;;;;;3.80;1.40;;;;;;;;;;5052414;28;20084;-55
2023/11/03 09:57:50;;;;;;;8.23;2.58;;;;;;;;;;5060248;28;20076;-57
2023/11/03 10:00:22;;;;;;;4.00;1.48;;;;;;;;;;5052910;28;20040;-61
2023/11/03 10:02:54;;;;;;;5.80;1.50;;;;;;;;;;5062549;28;20045;-69
2023/11/03 10:05:23;;;;;;;2.80;1.35;;;;;;;;;;5050384;28;20663;-52
2023/11/03 10:08:01;;;;;;;3.40;1.10;;;;;;;;;;5052963;28;20049;-64
2023/11/03 10:10:28;;;;;;;5.50;1.55;;;;;;;;;;5063464;28;20153;-55
2023/11/03 10:12:57;;;;;;;4.60;1.48;;;;;;;;;;5068141;28;20071;-51
2023/11/03 10:15:24;;;;;;;6.63;2.08;;;;;;;;;;5063130;28;20076;-53
2023/11/03 10:17:53;;;;;;;2.58;1.20;;;;;;;;;;5068202;28;20047;-56
2023/11/03 10:20:21;;;;;;;3.60;1.40;;;;;;;;;;5056421;28;20076;-54
2023/11/03 10:22:48;;;;;;;2.38;1.38;;;;;;;;;;5062405;28;20084;-53
2023/11/03 10:25:18;;;;;;;4.82;1.27;;;;;;;;;;5062461;28;20076;-53
2023/11/03 10:27:47;;;;;;;7.85;1.88;;;;;;;;;;5062386;28;20041;-55
2023/11/03 10:30:15;;;;;;;4.10;1.83;;;;;;;;;;5061741;28;20040;-55
2023/11/03 10:32:43;;;;;;;4.88;1.42;;;;;;;;;;5063963;28;20041;-56
2023/11/03 10:35:12;;;;;;;4.65;1.65;;;;;;;;;;5066699;28;20056;-53
2023/11/03 10:37:40;;;;;;;5.60;1.83;;;;;;;;;;5070759;28;20076;-53
2023/11/03 10:40:12;;;;;;;3.75;1.65;;;;;;;;;;5052496;28;20056;-55
2023/11/03 10:42:42;;;;;;;4.78;1.70;;;;;;;;;;5068334;28;20044;-55
2023/11/03 10:45:10;;;;;;;4.15;1.40;;;;;;;;;;5060403;28;20143;-56
2023/11/03 10:47:48;;;;;;;6.28;1.65;;;;;;;;;;5060660;28;20067;-56
2023/11/03 10:50:18;;;;;;;3.78;1.48;;;;;;;;;;5061144;28;20053;-55
2023/11/03 10:52:52;;;;;;;5.72;1.58;;;;;;;;;;5052598;28;20132;-55
2023/11/03 10:55:27;;;;;;;2.88;1.35;;;;;;;;;;5051978;28;20531;-55
2023/11/03 10:57:57;;;;;;;3.95;2.03;;;;;;;;;;5052567;28;20507;-54
2023/11/03 11:00:29;;;;;;;4.35;1.30;;;;;;;;;;5052595;28;20569;-58
2023/11/03 11:03:11;;;;;;;3.50;1.50;;;;;;;;;;5052156;28;20141;-55
2023/11/03 11:05:43;;;;;;;5.30;1.75;;;;;;;;;;5059927;28;20374;-55
2023/11/03 11:08:12;;;;;;;7.38;2.22;;;;;;;;;;5060455;28;20069;-55
2023/11/03 11:10:41;;;;;;;4.63;2.28;;;;;;;;;;5051994;28;20102;-56
2023/11/03 11:13:20;;;;;;;3.03;1.80;;;;;;;;;;5051615;28;20424;-55
2023/11/03 11:16:04;;;;;;;4.00;1.70;;;;;;;;;;5063396;28;20093;-57
2023/11/03 11:18:33;;;;;;;5.10;1.92;;;;;;;;;;5063407;28;20037;-53
2023/11/03 11:21:03;;;;;;;7.03;1.60;;;;;;;;;;5066458;28;20095;-54
2023/11/03 11:23:34;;;;;;;4.65;1.73;;;;;;;;;;5070347;28;20053;-53
2023/11/03 11:26:01;;;;;;;5.10;1.67;;;;;;;;;;5070629;28;20463;-54
2023/11/03 11:28:33;;;;;;;3.85;1.42;;;;;;;;;;5064030;28;20393;-56
2023/11/03 11:30:59;;;;;;;6.20;1.73;;;;;;;;;;5062749;28;20052;-54
2023/11/03 11:33:28;;;;;;;4.68;1.63;;;;;;;;;;5065791;28;20128;-55
2023/11/03 11:35:55;;;;;;;6.22;1.95;;;;;;;;;;5052480;28;20107;-55
2023/11/03 11:38:25;;;;;;;4.30;2.08;;;;;;;;;;5051575;28;20048;-56
2023/11/03 11:40:54;;;;;;;5.82;2.13;;;;;;;;;;5054290;28;20045;-55
2023/11/03 11:43:24;;;;;;;7.20;2.03;;;;;;;;;;5070083;28;20135;-56
2023/11/03 11:45:54;;;;;;;4.57;1.75;;;;;;;;;;5055614;28;20546;-56
2023/11/03 11:48:22;;;;;;;5.22;2.08;;;;;;;;;;5067521;28;20066;-54
2023/11/03 11:50:49;;;;;;;3.78;1.23;;;;;;;;;;5064412;28;20127;-53
2023/11/03 11:53:16;;;;;;;3.80;1.38;;;;;;;;;;5064288;28;20045;-55
2023/11/03 11:55:43;;;;;;;4.55;1.58;;;;;;;;;;5057408;28;20456;-53
2023/11/03 11:58:11;;;;;;;3.40;1.35;;;;;;;;;;5062042;28;20044;-53
2023/11/03 12:00:39;;;;;;;3.40;1.20;;;;;;;;;;5065350;28;20087;-56
2023/11/03 12:03:09;;;;;;;5.15;1.50;;;;;;;;;;5071003;28;20091;-55
2023/11/03 12:05:36;;;;;;;4.35;1.27;;;;;;;;;;5052398;28;20049;-54
2023/11/03 12:08:04;;;;;;;4.03;1.45;;;;;;;;;;5067359;28;20077;-54
2023/11/03 12:10:33;;;;;;;5.00;1.90;;;;;;;;;;5063194;28;20088;-55
2023/11/03 12:13:00;;;;;;;2.90;1.15;;;;;;;;;;5064217;28;20484;-55
2023/11/03 12:15:28;;;;;;;4.03;1.27;;;;;;;;;;5061192;28;20101;-55
2023/11/03 12:17:56;;;;;;;3.25;1.73;;;;;;;;;;5063329;28;20053;-56
2023/11/03 12:20:24;;;;;;;3.60;1.20;;;;;;;;;;5062480;28;20123;-56
2023/11/03 12:22:54;;;;;;;6.00;2.53;;;;;;;;;;5062273;28;20503;-56
2023/11/03 12:25:21;;;;;;;3.72;1.40;;;;;;;;;;5065282;28;20116;-55
2023/11/03 12:27:54;;;;;;;4.65;1.45;;;;;;;;;;5068590;28;20488;-56
2023/11/03 12:30:21;;;;;;;3.83;1.42;;;;;;;;;;5061858;28;20044;-55
2023/11/03 12:32:49;;;;;;;6.75;1.88;;;;;;;;;;5066817;28;20123;-56
2023/11/03 12:35:17;;;;;;;4.32;1.75;;;;;;;;;;5061231;28;20113;-53
2023/11/03 12:37:45;;;;;;;4.65;1.80;;;;;;;;;;5066326;28;20056;-56
2023/11/03 12:40:22;;;;;;;5.80;1.52;;;;;;;;;;5067236;28;20056;-65
2023/11/03 12:42:49;;;;;;;6.03;1.55;;;;;;;;;;5064146;28;20072;-56
2023/11/03 12:45:18;;;;;;;9.48;2.00;;;;;;;;;;5060879;28;20068;-56
2023/11/03 12:47:47;;;;;;;7.63;2.00;;;;;;;;;;5066754;28;20087;-57
2023/11/03 12:50:19;;;;;;;7.45;2.70;;;;;;;;;;5053961;28;20441;-56
2023/11/03 12:53:03;;;;;;;5.15;2.10;;;;;;;;;;5057236;28;20045;-57
2023/11/03 12:55:31;;;;;;;6.15;2.30;;;;;;;;;;5061191;28;20056;-56
2023/11/03 12:57:59;;;;;;;5.25;2.15;;;;;;;;;;5057660;28;20131;-56
2023/11/03 13:00:31;;;;;;;5.05;2.17;;;;;;;;;;5062287;28;20086;-56
2023/11/03 13:02:58;;;;;;;3.53;1.48;;;;;;;;;;5062190;28;20048;-55
2023/11/03 13:05:26;;;;;;;3.90;1.70;;;;;;;;;;5067254;28;20040;-56
2023/11/03 13:07:56;;;;;;;6.65;2.10;;;;;;;;;;5064521;28;20044;-57
2023/11/03 13:10:23;;;;;;;4.85;1.80;;;;;;;;;;5061982;28;20094;-57
2023/11/03 13:12:50;;;;;;;4.15;1.77;;;;;;;;;;5067463;28;20620;-57
2023/11/03 13:15:18;;;;;;;3.80;1.58;;;;;;;;;;5059641;28;20072;-56
2023/11/03 13:17:45;;;;;;;5.00;2.00;;;;;;;;;;5063607;28;20465;-57
2023/11/03 13:20:15;;;;;;;4.22;1.52;;;;;;;;;;5062663;28;20049;-57
2023/11/03 13:22:42;;;;;;;4.30;1.55;;;;;;;;;;5064993;28;20116;-57
2023/11/03 13:25:10;;;;;;;4.97;1.60;;;;;;;;;;5054437;28;20139;-56
2023/11/03 13:27:40;;;;;;;3.83;1.47;;;;;;;;;;5063098;28;20056;-55
2023/11/03 13:30:08;;;;;;;4.20;1.75;;;;;;;;;;5062450;28;20799;-56
2023/11/03 13:32:35;;;;;;;4.38;1.65;;;;;;;;;;5069598;28;20044;-56
2023/11/03 13:35:01;;;;;;;5.55;2.45;;;;;;;;;;5053823;28;20049;-57
2023/11/03 13:37:29;;;;;;;5.50;2.00;;;;;;;;;;5068644;28;20076;-57
2023/11/03 13:39:56;;;;;;;4.78;1.60;;;;;;;;;;5069094;28;20075;-54
2023/11/03 13:42:25;;;;;;;4.30;1.55;;;;;;;;;;5069323;28;20060;-55
2023/11/03 13:44:51;;;;;;;3.58;1.70;;;;;;;;;;5058028;28;20040;-57
2023/11/03 13:47:19;;;;;;;5.47;1.52;;;;;;;;;;5063120;28;20040;-54
2023/11/03 13:49:45;;;;;;;4.88;1.70;;;;;;;;;;5063675;28;20123;-57
2023/11/03 13:52:12;;;;;;;4.75;1.80;;;;;;;;;;5066348;28;20134;-56
2023/11/03 13:54:39;;;;;;;5.43;1.88;;;;;;;;;;5052436;28;20048;-52
2023/11/03 13:57:06;;;;;;;8.32;2.15;;;;;;;;;;5059100;28;21348;-55
2023/11/03 13:59:35;;;;;;;3.53;1.80;;;;;;;;;;5052932;28;20075;-55
2023/11/03 14:02:02;;;;;;;2.55;1.15;;;;;;;;;;5061460;28;20098;-55
2023/11/03 14:04:29;;;;;;;1.77;1.00;;;;;;;;;;5053075;28;20451;-57
2023/11/03 14:06:56;;;;;;;2.70;0.80;;;;;;;;;;5056806;28;20040;-56
2023/11/03 14:09:25;;;;;;;2.10;0.85;;;;;;;;;;5062233;28;20408;-55
2023/11/03 14:11:52;;;;;;;4.60;1.15;;;;;;;;;;5062641;28;20527;-54
2023/11/03 14:14:21;;;;;;;2.58;0.93;;;;;;;;;;5059427;28;20067;-56
2023/11/03 14:16:50;;;;;;;3.35;0.90;;;;;;;;;;5056868;28;20045;-52
2023/11/03 14:19:18;;;;;;;2.65;1.05;;;;;;;;;;5061521;28;20052;-56
2023/11/03 14:21:49;;;;;;;3.00;1.35;;;;;;;;;;5061857;28;20072;-61
2023/11/03 14:24:18;;;;;;;3.25;1.40;;;;;;;;;;5063206;28;20173;-56
2023/11/03 14:26:47;;;;;;;5.35;1.40;;;;;;;;;;5062140;28;20442;-54
2023/11/03 14:29:15;;;;;;;5.40;1.67;;;;;;;;;;5060765;28;20087;-56
2023/11/03 14:31:45;;;;;;;3.72;1.33;;;;;;;;;;5071007;28;20048;-55
2023/11/03 14:34:14;;;;;;;;;;;;;;;;;;5068713;28;20052;-56
2023/11/03 14:36:42;;;;;;;2.60;1.42;;;;;;;;;;5068242;28;19920;-58
2023/11/03 14:39:12;;;;;;;5.07;2.00;;;;;;;;;;5068746;28;20135;-55
2023/11/03 14:41:40;;;;;;;6.88;1.90;;;;;;;;;;5067179;28;20045;-56
2023/11/03 14:44:10;;;;;;;4.40;1.80;;;;;;;;;;5064751;28;20044;-55
2023/11/03 14:46:37;;;;;;;5.53;1.85;;;;;;;;;;5069061;28;20102;-57